createdAt,value
2023-03-27T00:00:16.747Z,10.59
2023-03-27T00:03:20.174Z,10.23
2023-03-27T00:06:25.089Z,10.46
2023-03-27T00:09:29.611Z,10.45
2023-03-27T00:12:32.287Z,10.50
2023-03-27T00:15:34.998Z,10.64
2023-03-27T00:18:37.542Z,10.79
2023-03-27T00:21:40.538Z,10.87
2023-03-27T00:24:42.995Z,10.86
2023-03-27T00:27:45.739Z,10.97
2023-03-27T00:30:48.457Z,10.95
2023-03-27T00:33:51.419Z,10.83
2023-03-27T00:36:53.845Z,10.76
2023-03-27T00:39:56.543Z,10.74
2023-03-27T00:42:59.537Z,10.83
2023-03-27T00:46:04.862Z,10.85
2023-03-27T00:49:09.752Z,10.84
2023-03-27T00:52:13.729Z,10.87
2023-03-27T00:55:17.266Z,10.81
2023-03-27T00:58:34.006Z,10.87
2023-03-27T01:01:36.596Z,10.74
2023-03-27T01:04:39.554Z,10.85
2023-03-27T01:07:42.195Z,10.79
2023-03-27T01:11:18.924Z,10.67
2023-03-27T01:14:32.780Z,10.69
2023-03-27T01:17:42.671Z,10.58
2023-03-27T01:21:18.480Z,10.72
2023-03-27T01:24:32.149Z,10.72
2023-03-27T01:28:05.460Z,10.76
2023-03-27T01:31:28.894Z,10.64
2023-03-27T01:35:01.502Z,10.57
2023-03-27T01:38:30.132Z,10.22
2023-03-27T01:41:43.228Z,10.25
2023-03-27T01:44:47.906Z,10.43
2023-03-27T01:48:05.635Z,10.44
2023-03-27T01:51:28.242Z,10.07
2023-03-27T01:54:42.096Z,9.85
2023-03-27T01:57:50.819Z,10.09
2023-03-27T02:00:56.589Z,10.21
2023-03-27T02:04:00.140Z,10.06
2023-03-27T02:07:04.867Z,10.19
2023-03-27T02:10:10.308Z,10.30
2023-03-27T02:13:21.588Z,10.33
2023-03-27T02:16:33.893Z,10.24
2023-03-27T02:19:47.548Z,10.20
2023-03-27T02:22:50.536Z,10.30
2023-03-27T02:25:55.167Z,10.24
2023-03-27T02:28:57.685Z,10.00
2023-03-27T02:32:31.572Z,10.09
2023-03-27T02:36:11.148Z,10.16
2023-03-27T02:39:35.164Z,10.15
2023-03-27T02:42:54.368Z,10.25
2023-03-27T02:46:00.909Z,10.24
2023-03-27T02:49:06.936Z,10.26
2023-03-27T02:52:12.434Z,10.24
2023-03-27T02:55:22.009Z,10.20
2023-03-27T02:58:47.604Z,10.07
2023-03-27T03:02:10.719Z,10.14
2023-03-27T03:05:23.822Z,10.24
2023-03-27T03:08:30.770Z,10.27
2023-03-27T03:11:35.464Z,10.20
2023-03-27T03:14:39.540Z,10.21
2023-03-27T03:17:42.044Z,10.28
2023-03-27T03:20:45.887Z,10.32
2023-03-27T03:23:58.135Z,10.29
2023-03-27T03:27:04.616Z,10.21
2023-03-27T03:30:17.521Z,10.36
2023-03-27T03:33:34.634Z,10.18
2023-03-27T03:36:37.040Z,10.19
2023-03-27T03:39:39.716Z,10.08
2023-03-27T03:42:49.717Z,10.16
2023-03-27T03:45:54.942Z,10.20
2023-03-27T03:48:59.244Z,10.16
2023-03-27T03:52:03.306Z,10.22
2023-03-27T03:55:08.199Z,10.06
2023-03-27T03:58:10.909Z,10.06
2023-03-27T04:01:14.036Z,9.90
2023-03-27T04:04:22.890Z,9.86
2023-03-27T04:07:41.259Z,9.95
2023-03-27T04:11:12.221Z,9.99
2023-03-27T04:14:34.808Z,9.97
2023-03-27T04:17:43.559Z,9.97
2023-03-27T04:20:54.388Z,10.00
2023-03-27T04:24:02.844Z,10.04
2023-03-27T04:27:18.830Z,10.05
2023-03-27T04:30:44.640Z,9.94
2023-03-27T04:34:05.795Z,9.83
2023-03-27T04:37:40.883Z,9.79
2023-03-27T04:41:02.769Z,9.81
2023-03-27T04:44:05.630Z,9.72
2023-03-27T04:47:09.028Z,9.75
2023-03-27T04:50:14.385Z,9.74
2023-03-27T04:53:18.138Z,9.68
2023-03-27T04:56:22.904Z,9.50
2023-03-27T04:59:32.245Z,9.47
2023-03-27T05:02:54.745Z,9.52
2023-03-27T05:06:20.554Z,9.56
2023-03-27T05:09:24.340Z,9.41
2023-03-27T05:12:28.061Z,9.45
2023-03-27T05:15:35.649Z,9.36
2023-03-27T05:18:42.160Z,9.25
2023-03-27T05:21:46.288Z,9.22
2023-03-27T05:24:49.176Z,9.27
2023-03-27T05:27:51.906Z,9.30
2023-03-27T05:30:54.636Z,9.27
2023-03-27T05:33:59.271Z,9.29
2023-03-27T05:37:05.848Z,9.25
2023-03-27T05:40:21.102Z,9.20
2023-03-27T05:43:23.776Z,9.26
2023-03-27T05:46:27.113Z,9.41
2023-03-27T05:49:37.291Z,9.27
2023-03-27T05:52:47.273Z,9.28
2023-03-27T05:55:50.243Z,9.19
2023-03-27T05:59:11.045Z,9.23
2023-03-27T06:02:19.923Z,9.25
2023-03-27T06:05:32.609Z,9.24
2023-03-27T06:08:36.851Z,9.04
2023-03-27T06:11:43.022Z,9.19
2023-03-27T06:14:45.652Z,9.11
2023-03-27T06:18:01.978Z,9.04
2023-03-27T06:21:10.767Z,9.09
2023-03-27T06:24:13.951Z,9.10
2023-03-27T06:27:18.373Z,9.23
2023-03-27T06:30:21.772Z,9.27
2023-03-27T06:33:44.034Z,9.20
2023-03-27T06:37:02.776Z,9.27
2023-03-27T06:40:20.471Z,9.32
2023-03-27T06:43:23.324Z,9.30
2023-03-27T06:46:45.189Z,9.29
2023-03-27T06:50:03.050Z,9.40
2023-03-27T06:53:10.037Z,9.34
2023-03-27T06:56:20.760Z,9.30
2023-03-27T06:59:43.334Z,9.40
2023-03-27T07:02:47.348Z,9.40
2023-03-27T07:06:13.067Z,9.49
2023-03-27T07:09:28.529Z,9.41
2023-03-27T07:12:37.182Z,9.49
2023-03-27T07:15:41.305Z,9.68
2023-03-27T07:18:44.379Z,9.68
2023-03-27T07:21:47.128Z,9.67
2023-03-27T07:24:50.476Z,9.49
2023-03-27T07:28:00.687Z,9.46
2023-03-27T07:31:16.715Z,9.49
2023-03-27T07:34:32.369Z,9.61
2023-03-27T07:37:49.684Z,9.64
2023-03-27T07:41:11.724Z,9.51
2023-03-27T07:44:17.762Z,9.46
2023-03-27T07:47:31.412Z,9.43
2023-03-27T07:50:35.104Z,9.43
2023-03-27T07:53:37.870Z,9.51
2023-03-27T07:56:49.030Z,9.47
2023-03-27T08:00:12.903Z,9.51
2023-03-27T08:03:35.637Z,9.51
2023-03-27T08:06:38.781Z,9.63
2023-03-27T08:09:46.645Z,9.35
2023-03-27T08:12:49.317Z,9.39
2023-03-27T08:15:52.080Z,9.44
2023-03-27T08:18:58.011Z,9.37
2023-03-27T08:22:02.274Z,9.33
2023-03-27T08:25:16.890Z,9.18
2023-03-27T08:28:19.987Z,9.07
2023-03-27T08:31:22.520Z,9.19
2023-03-27T08:34:25.058Z,9.09
2023-03-27T08:37:28.694Z,9.11
2023-03-27T08:40:59.215Z,9.25
2023-03-27T08:44:16.272Z,9.17
2023-03-27T08:47:40.934Z,9.16
2023-03-27T08:51:00.400Z,9.14
2023-03-27T08:54:38.456Z,9.18
2023-03-27T08:57:44.352Z,9.23
2023-03-27T09:00:59.383Z,9.13
2023-03-27T09:04:48.812Z,9.07
2023-03-27T09:08:10.622Z,9.15
2023-03-27T09:11:21.837Z,9.16
2023-03-27T09:14:34.001Z,9.12
2023-03-27T09:17:52.916Z,9.10
2023-03-27T09:21:09.055Z,9.27
2023-03-27T09:24:33.203Z,9.20
2023-03-27T09:28:12.146Z,9.22
2023-03-27T09:31:23.058Z,9.22
2023-03-27T09:34:30.596Z,9.23
2023-03-27T09:37:36.372Z,9.37
2023-03-27T09:40:49.394Z,9.31
2023-03-27T09:44:04.716Z,9.31
2023-03-27T09:47:14.351Z,9.30
2023-03-27T09:50:47.372Z,9.16
2023-03-27T09:54:14.562Z,9.22
2023-03-27T09:57:17.247Z,9.31
2023-03-27T10:00:31.681Z,9.14
2023-03-27T10:03:39.268Z,9.15
2023-03-27T10:07:02.492Z,8.99
2023-03-27T10:10:42.718Z,8.98
2023-03-27T10:14:13.813Z,8.87
2023-03-27T10:17:22.447Z,8.93
2023-03-27T10:20:30.648Z,8.91
2023-03-27T10:23:49.561Z,8.93
2023-03-27T10:27:26.287Z,8.90
2023-03-27T10:31:12.069Z,8.99
2023-03-27T10:34:40.050Z,9.01
2023-03-27T10:38:02.196Z,9.14
2023-03-27T10:41:28.161Z,9.07
2023-03-27T10:44:33.733Z,9.04
2023-03-27T10:47:36.704Z,8.99
2023-03-27T10:50:47.445Z,8.88
2023-03-27T10:53:57.232Z,8.87
2023-03-27T10:57:16.582Z,8.94
2023-03-27T11:00:32.668Z,8.80
2023-03-27T11:03:56.431Z,8.70
2023-03-27T11:06:59.196Z,8.71
2023-03-27T11:10:18.098Z,8.75
2023-03-27T11:13:42.719Z,8.67
2023-03-27T11:16:49.282Z,8.75
2023-03-27T11:19:59.095Z,8.75
2023-03-27T11:23:20.153Z,8.85
2023-03-27T11:27:10.005Z,8.76
2023-03-27T11:30:26.405Z,8.90
2023-03-27T11:33:41.025Z,8.89
2023-03-27T11:36:51.596Z,8.84
2023-03-27T11:40:20.527Z,8.90
2023-03-27T11:43:26.901Z,9.01
2023-03-27T11:46:39.007Z,8.95
2023-03-27T11:49:53.746Z,8.83
2023-03-27T11:53:34.342Z,8.83
2023-03-27T11:57:02.140Z,8.87
2023-03-27T12:00:47.773Z,8.91
2023-03-27T12:04:01.951Z,9.06
2023-03-27T12:07:47.966Z,8.96
2023-03-27T12:10:53.225Z,9.09
2023-03-27T12:14:18.962Z,9.22
2023-03-27T12:17:47.277Z,9.42
2023-03-27T12:20:55.706Z,9.35
2023-03-27T12:24:15.418Z,9.28
2023-03-27T12:27:44.844Z,9.31
2023-03-27T12:31:30.785Z,9.27
2023-03-27T12:34:51.193Z,9.26
2023-03-27T12:38:05.578Z,9.31
2023-03-27T12:41:23.416Z,9.42
2023-03-27T12:44:36.537Z,9.44
2023-03-27T12:47:39.138Z,9.48
2023-03-27T12:50:51.743Z,9.49
2023-03-27T12:53:56.674Z,9.57
2023-03-27T12:57:05.338Z,9.63
2023-03-27T13:00:28.761Z,9.58
2023-03-27T13:04:10.844Z,9.56
2023-03-27T13:07:33.550Z,9.35
2023-03-27T13:11:01.468Z,9.12
2023-03-27T13:14:20.567Z,8.84
2023-03-27T13:17:34.083Z,8.72
2023-03-27T13:20:48.504Z,8.55
2023-03-27T13:24:01.671Z,8.62
2023-03-27T13:27:35.538Z,8.61
2023-03-27T13:30:48.892Z,8.46
2023-03-27T13:34:26.931Z,8.40
2023-03-27T13:37:36.780Z,8.38
2023-03-27T13:40:45.088Z,8.16
2023-03-27T13:43:55.022Z,8.03
2023-03-27T13:47:36.375Z,7.82
2023-03-27T13:51:03.354Z,7.89
2023-03-27T13:54:27.559Z,7.80
2023-03-27T13:57:48.180Z,7.71
2023-03-27T14:01:13.848Z,7.56
2023-03-27T14:04:29.336Z,7.50
2023-03-27T14:08:21.143Z,7.32
2023-03-27T14:11:50.088Z,7.17
2023-03-27T14:15:33.185Z,7.19
2023-03-27T14:19:09.474Z,7.14
2023-03-27T14:22:44.744Z,6.94
2023-03-27T14:26:08.596Z,6.90
2023-03-27T14:29:17.583Z,7.05
2023-03-27T14:32:25.997Z,6.99
2023-03-27T14:35:44.155Z,7.04
2023-03-27T14:39:16.628Z,6.96
2023-03-27T14:42:29.772Z,6.86
2023-03-27T14:45:36.321Z,6.72
2023-03-27T14:48:42.800Z,6.72
2023-03-27T14:51:53.506Z,6.76
2023-03-27T14:55:19.590Z,6.77
2023-03-27T14:58:30.988Z,6.57
2023-03-27T15:01:37.877Z,6.51
2023-03-27T15:04:44.829Z,6.66
2023-03-27T15:07:52.657Z,6.66
2023-03-27T15:11:13.143Z,6.43
2023-03-27T15:14:42.502Z,6.42
2023-03-27T15:17:47.448Z,6.43
2023-03-27T15:20:52.344Z,6.19
2023-03-27T15:24:13.581Z,6.09
2023-03-27T15:31:04.384Z,5.93
2023-03-27T15:34:47.911Z,5.77
2023-03-27T15:37:53.505Z,5.64
2023-03-27T15:41:17.204Z,5.58
2023-03-27T15:44:28.141Z,5.58
2023-03-27T15:47:36.613Z,5.54
2023-03-27T15:50:42.562Z,5.43
2023-03-27T15:53:49.007Z,5.46
2023-03-27T15:57:10.185Z,5.44
2023-03-27T16:00:20.080Z,5.39
2023-03-27T16:03:28.255Z,5.30
2023-03-27T16:06:41.960Z,5.32
2023-03-27T16:10:02.410Z,5.31
2023-03-27T16:13:09.487Z,5.33
2023-03-27T16:16:53.596Z,5.22
2023-03-27T16:20:22.064Z,5.20
2023-03-27T16:23:27.086Z,5.17
2023-03-27T16:26:33.106Z,5.15
2023-03-27T16:30:03.339Z,5.15
2023-03-27T16:33:47.360Z,5.16
2023-03-27T16:37:03.244Z,5.06
2023-03-27T16:40:12.796Z,5.09
2023-03-27T16:43:27.876Z,5.03
2023-03-27T16:46:41.499Z,5.01
2023-03-27T16:49:59.297Z,4.97
2023-03-27T16:53:23.679Z,4.96
2023-03-27T16:56:27.803Z,5.08
2023-03-27T16:59:41.725Z,5.07
2023-03-27T17:02:52.916Z,5.08
2023-03-27T17:06:28.448Z,5.13
2023-03-27T17:09:33.843Z,5.17
2023-03-27T17:12:41.359Z,5.18
2023-03-27T17:15:48.765Z,5.17
2023-03-27T17:18:53.477Z,5.11
2023-03-27T17:22:03.807Z,5.13
2023-03-27T17:25:17.195Z,5.16
2023-03-27T17:28:26.390Z,5.14
2023-03-27T17:31:31.003Z,5.08
2023-03-27T17:34:33.630Z,5.11
2023-03-27T17:37:36.226Z,5.08
2023-03-27T17:40:40.879Z,5.03
2023-03-27T17:43:47.073Z,5.08
2023-03-27T17:46:50.017Z,4.91
2023-03-27T17:49:54.379Z,4.97
2023-03-27T17:52:57.394Z,4.88
2023-03-27T17:56:00.187Z,4.87
2023-03-27T17:59:02.971Z,4.82
2023-03-27T18:02:05.818Z,4.77
2023-03-27T18:05:09.171Z,4.71
2023-03-27T18:08:13.107Z,4.65
2023-03-27T18:11:16.474Z,4.55
2023-03-27T18:14:19.406Z,4.54
2023-03-27T18:17:22.108Z,4.49
2023-03-27T18:20:24.626Z,4.33
2023-03-27T18:23:27.377Z,4.26
2023-03-27T18:26:30.309Z,4.30
2023-03-27T18:29:33.991Z,4.25
2023-03-27T18:32:36.712Z,4.35
2023-03-27T18:35:39.249Z,4.27
2023-03-27T18:38:42.308Z,4.25
2023-03-27T18:41:44.954Z,4.34
2023-03-27T18:44:48.448Z,4.26
2023-03-27T18:47:51.333Z,4.27
2023-03-27T18:51:19.846Z,4.27
2023-03-27T18:54:22.765Z,4.26
2023-03-27T18:57:25.805Z,4.28
2023-03-27T19:00:28.940Z,4.27
2023-03-27T19:03:35.979Z,4.27
2023-03-27T19:06:39.114Z,4.24
2023-03-27T19:09:41.969Z,4.18
2023-03-27T19:12:44.711Z,4.16
2023-03-27T19:16:15.388Z,4.15
2023-03-27T19:19:42.400Z,4.09
2023-03-27T19:23:09.391Z,4.10
2023-03-27T19:26:17.204Z,4.09
2023-03-27T19:29:20.801Z,4.05
2023-03-27T19:32:25.774Z,4.12
2023-03-27T19:35:28.567Z,4.05
2023-03-27T19:38:31.059Z,4.13
2023-03-27T19:41:33.812Z,4.15
2023-03-27T19:44:38.309Z,3.98
2023-03-27T19:47:41.090Z,3.96
2023-03-27T19:50:43.749Z,3.99
2023-03-27T19:53:55.672Z,4.02
2023-03-27T19:57:00.985Z,4.02
2023-03-27T20:00:11.534Z,4.03
2023-03-27T20:03:22.083Z,4.07
2023-03-27T20:06:29.379Z,4.08
2023-03-27T20:09:34.664Z,3.97
2023-03-27T20:12:39.348Z,3.99
2023-03-27T20:15:46.302Z,4.01
2023-03-27T20:19:08.712Z,3.99
2023-03-27T20:22:13.052Z,3.84
2023-03-27T20:25:19.067Z,3.84
2023-03-27T20:28:25.059Z,3.89
2023-03-27T20:31:30.768Z,3.83
2023-03-27T20:34:35.668Z,3.82
2023-03-27T20:37:44.374Z,3.90
2023-03-27T20:40:58.047Z,3.84
2023-03-27T20:44:02.875Z,3.77
2023-03-27T20:47:12.315Z,3.89
2023-03-27T20:50:18.939Z,3.89
2023-03-27T20:53:33.777Z,3.93
2023-03-27T20:56:36.531Z,3.83
2023-03-27T20:59:39.172Z,3.73
2023-03-27T21:02:41.655Z,3.86
2023-03-27T21:05:44.941Z,3.86
2023-03-27T21:08:47.586Z,3.88
2023-03-27T21:11:50.125Z,3.82
2023-03-27T21:14:52.632Z,3.81
2023-03-27T21:17:55.433Z,3.79
2023-03-27T21:21:00.440Z,3.73
2023-03-27T21:24:03.214Z,3.74
2023-03-27T21:27:05.712Z,3.72
2023-03-27T21:30:09.741Z,3.70
2023-03-27T21:33:12.060Z,3.62
2023-03-27T21:36:14.905Z,3.57
2023-03-27T21:39:17.445Z,3.64
2023-03-27T21:42:21.858Z,3.56
2023-03-27T21:45:24.327Z,3.56
2023-03-27T21:48:26.778Z,3.59
2023-03-27T21:51:29.396Z,3.54
2023-03-27T21:54:31.829Z,3.58
2023-03-27T21:57:34.321Z,3.56
2023-03-27T22:00:36.886Z,3.52
2023-03-27T22:03:39.392Z,3.41
2023-03-27T22:06:41.912Z,3.50
2023-03-27T22:09:44.705Z,3.47
2023-03-27T22:12:47.165Z,3.43
2023-03-27T22:15:49.775Z,3.44
2023-03-27T22:18:52.267Z,3.36
2023-03-27T22:21:54.994Z,3.48
2023-03-27T22:24:57.457Z,3.47
2023-03-27T22:28:01.851Z,3.40
2023-03-27T22:31:04.736Z,3.34
2023-03-27T22:34:07.690Z,3.36
2023-03-27T22:37:10.369Z,3.28
2023-03-27T22:40:13.079Z,3.33
2023-03-27T22:43:23.270Z,3.30
2023-03-27T22:46:25.752Z,3.30
2023-03-27T22:49:28.391Z,3.26
2023-03-27T22:52:30.856Z,3.30
2023-03-27T22:55:33.271Z,3.34
2023-03-27T22:58:36.092Z,3.44
2023-03-27T23:01:38.621Z,3.34
2023-03-27T23:04:41.065Z,3.25
2023-03-27T23:07:43.842Z,3.17
2023-03-27T23:10:46.790Z,3.19
2023-03-27T23:13:49.337Z,3.21
2023-03-27T23:16:51.844Z,3.32
2023-03-27T23:19:54.350Z,3.27
2023-03-27T23:22:56.857Z,3.19
2023-03-27T23:25:59.990Z,3.20
2023-03-27T23:29:02.721Z,3.14
2023-03-27T23:32:05.993Z,3.12
2023-03-27T23:35:11.463Z,3.17
2023-03-27T23:38:14.015Z,3.11
2023-03-27T23:41:16.889Z,3.13
2023-03-27T23:44:19.705Z,2.95
2023-03-27T23:47:22.245Z,2.96
2023-03-27T23:50:24.643Z,2.90
2023-03-27T23:53:27.963Z,2.84
2023-03-27T23:56:30.475Z,2.95
2023-03-27T23:59:37.957Z,2.79
